sensor_id;sensor_type;location;lat;lon;timestamp;temperature;humidity
32612;DHT22;19030;49.478;8.986;2022-07-23T00:01:34;21.30;99.90
32612;DHT22;19030;49.478;8.986;2022-07-23T00:03:34;21.30;99.90
32612;DHT22;19030;49.478;8.986;2022-07-23T00:05:35;21.30;99.90
32612;DHT22;19030;49.478;8.986;2022-07-23T00:07:36;21.30;99.90
32612;DHT22;19030;49.478;8.986;2022-07-23T00:09:37;21.20;99.90
32612;DHT22;19030;49.478;8.986;2022-07-23T00:11:37;21.20;99.90
32612;DHT22;19030;49.478;8.986;2022-07-23T00:13:38;21.20;99.90
32612;DHT22;19030;49.478;8.986;2022-07-23T00:15:38;21.10;99.90
32612;DHT22;19030;49.478;8.986;2022-07-23T00:17:39;21.10;99.90
32612;DHT22;19030;49.478;8.986;2022-07-23T00:19:39;21.10;99.90
32612;DHT22;19030;49.478;8.986;2022-07-23T00:21:40;21.00;99.90
32612;DHT22;19030;49.478;8.986;2022-07-23T00:23:41;21.00;99.90
32612;DHT22;19030;49.478;8.986;2022-07-23T00:25:41;21.00;99.90
32612;DHT22;19030;49.478;8.986;2022-07-23T00:27:42;21.00;99.90
32612;DHT22;19030;49.478;8.986;2022-07-23T00:29:42;21.00;99.90
32612;DHT22;19030;49.478;8.986;2022-07-23T00:31:43;21.00;99.90
32612;DHT22;19030;49.478;8.986;2022-07-23T00:33:44;21.00;99.90
32612;DHT22;19030;49.478;8.986;2022-07-23T00:35:45;21.00;99.90
32612;DHT22;19030;49.478;8.986;2022-07-23T00:37:46;20.90;99.90
32612;DHT22;19030;49.478;8.986;2022-07-23T00:39:46;20.90;99.90
32612;DHT22;19030;49.478;8.986;2022-07-23T00:41:47;20.90;99.90
32612;DHT22;19030;49.478;8.986;2022-07-23T00:43:48;20.90;99.90
32612;DHT22;19030;49.478;8.986;2022-07-23T00:45:49;20.90;99.90
32612;DHT22;19030;49.478;8.986;2022-07-23T00:47:49;20.90;99.90
32612;DHT22;19030;49.478;8.986;2022-07-23T00:49:50;20.90;99.90
32612;DHT22;19030;49.478;8.986;2022-07-23T00:51:51;21.00;99.90
32612;DHT22;19030;49.478;8.986;2022-07-23T00:53:52;20.90;99.90
32612;DHT22;19030;49.478;8.986;2022-07-23T00:55:53;20.90;99.90
32612;DHT22;19030;49.478;8.986;2022-07-23T00:57:55;20.90;99.90
32612;DHT22;19030;49.478;8.986;2022-07-23T00:59:56;20.90;99.90
32612;DHT22;19030;49.478;8.986;2022-07-23T01:01:58;20.90;99.90
32612;DHT22;19030;49.478;8.986;2022-07-23T01:03:58;20.80;99.90
32612;DHT22;19030;49.478;8.986;2022-07-23T01:05:59;20.70;99.90
32612;DHT22;19030;49.478;8.986;2022-07-23T01:08:00;20.70;99.90
32612;DHT22;19030;49.478;8.986;2022-07-23T01:10:01;20.60;99.90
32612;DHT22;19030;49.478;8.986;2022-07-23T01:12:03;20.60;99.90
32612;DHT22;19030;49.478;8.986;2022-07-23T01:14:15;20.50;99.90
32612;DHT22;19030;49.478;8.986;2022-07-23T01:16:16;20.50;99.90
32612;DHT22;19030;49.478;8.986;2022-07-23T01:18:17;20.40;99.90
32612;DHT22;19030;49.478;8.986;2022-07-23T01:20:19;20.40;99.90
32612;DHT22;19030;49.478;8.986;2022-07-23T01:22:20;20.40;99.90
32612;DHT22;19030;49.478;8.986;2022-07-23T01:24:21;20.40;99.90
32612;DHT22;19030;49.478;8.986;2022-07-23T01:26:33;20.40;99.90
32612;DHT22;19030;49.478;8.986;2022-07-23T01:28:34;20.40;99.90
32612;DHT22;19030;49.478;8.986;2022-07-23T01:30:34;20.30;99.90
32612;DHT22;19030;49.478;8.986;2022-07-23T01:32:39;20.30;99.90
32612;DHT22;19030;49.478;8.986;2022-07-23T01:34:40;20.30;99.90
32612;DHT22;19030;49.478;8.986;2022-07-23T01:36:41;20.30;99.90
32612;DHT22;19030;49.478;8.986;2022-07-23T01:38:44;20.20;99.90
32612;DHT22;19030;49.478;8.986;2022-07-23T01:40:45;20.20;99.90
32612;DHT22;19030;49.478;8.986;2022-07-23T01:42:45;20.20;99.90
32612;DHT22;19030;49.478;8.986;2022-07-23T01:44:47;20.20;99.90
32612;DHT22;19030;49.478;8.986;2022-07-23T01:46:53;20.10;99.90
32612;DHT22;19030;49.478;8.986;2022-07-23T01:48:55;20.10;99.90
32612;DHT22;19030;49.478;8.986;2022-07-23T01:51:14;20.10;99.90
32612;DHT22;19030;49.478;8.986;2022-07-23T01:53:17;20.00;99.90
32612;DHT22;19030;49.478;8.986;2022-07-23T01:55:18;20.00;99.90
32612;DHT22;19030;49.478;8.986;2022-07-23T01:57:18;20.00;99.90
32612;DHT22;19030;49.478;8.986;2022-07-23T01:59:20;19.90;99.90
32612;DHT22;19030;49.478;8.986;2022-07-23T02:01:20;19.90;99.90
32612;DHT22;19030;49.478;8.986;2022-07-23T02:03:21;19.90;99.90
32612;DHT22;19030;49.478;8.986;2022-07-23T02:05:22;19.90;99.90
32612;DHT22;19030;49.478;8.986;2022-07-23T02:07:22;19.90;99.90
32612;DHT22;19030;49.478;8.986;2022-07-23T02:09:25;19.90;99.90
32612;DHT22;19030;49.478;8.986;2022-07-23T02:11:26;19.80;99.90
32612;DHT22;19030;49.478;8.986;2022-07-23T02:13:27;19.80;99.90
32612;DHT22;19030;49.478;8.986;2022-07-23T02:15:29;19.80;99.90
32612;DHT22;19030;49.478;8.986;2022-07-23T02:17:30;19.80;99.90
32612;DHT22;19030;49.478;8.986;2022-07-23T02:19:30;19.80;99.90
32612;DHT22;19030;49.478;8.986;2022-07-23T02:21:31;19.80;99.90
32612;DHT22;19030;49.478;8.986;2022-07-23T02:23:31;19.70;99.90
32612;DHT22;19030;49.478;8.986;2022-07-23T02:25:33;19.70;99.90
32612;DHT22;19030;49.478;8.986;2022-07-23T02:27:36;19.70;99.90
32612;DHT22;19030;49.478;8.986;2022-07-23T02:29:39;19.70;99.90
32612;DHT22;19030;49.478;8.986;2022-07-23T02:31:39;19.70;99.90
32612;DHT22;19030;49.478;8.986;2022-07-23T02:33:41;19.70;99.90
32612;DHT22;19030;49.478;8.986;2022-07-23T02:35:42;19.60;99.90
32612;DHT22;19030;49.478;8.986;2022-07-23T02:37:42;19.60;99.90
32612;DHT22;19030;49.478;8.986;2022-07-23T02:39:43;19.60;99.90
32612;DHT22;19030;49.478;8.986;2022-07-23T02:41:45;19.60;99.90
32612;DHT22;19030;49.478;8.986;2022-07-23T02:43:46;19.60;99.90
32612;DHT22;19030;49.478;8.986;2022-07-23T02:45:47;19.50;99.90
32612;DHT22;19030;49.478;8.986;2022-07-23T02:47:48;19.50;99.90
32612;DHT22;19030;49.478;8.986;2022-07-23T02:49:49;19.50;99.90
32612;DHT22;19030;49.478;8.986;2022-07-23T02:51:49;19.50;99.90
32612;DHT22;19030;49.478;8.986;2022-07-23T02:53:50;19.50;99.90
32612;DHT22;19030;49.478;8.986;2022-07-23T02:55:51;19.50;99.90
32612;DHT22;19030;49.478;8.986;2022-07-23T02:57:52;19.50;99.90
32612;DHT22;19030;49.478;8.986;2022-07-23T02:59:52;19.40;99.90
32612;DHT22;19030;49.478;8.986;2022-07-23T03:01:53;19.50;99.90
32612;DHT22;19030;49.478;8.986;2022-07-23T03:03:54;19.50;99.90
32612;DHT22;19030;49.478;8.986;2022-07-23T03:05:56;19.40;99.90
32612;DHT22;19030;49.478;8.986;2022-07-23T03:07:57;19.50;99.90
32612;DHT22;19030;49.478;8.986;2022-07-23T03:09:57;19.50;99.90
32612;DHT22;19030;49.478;8.986;2022-07-23T03:11:58;19.50;99.90
32612;DHT22;19030;49.478;8.986;2022-07-23T03:13:58;19.60;99.90
32612;DHT22;19030;49.478;8.986;2022-07-23T03:15:59;19.60;99.90
32612;DHT22;19030;49.478;8.986;2022-07-23T03:17:59;19.60;99.90
32612;DHT22;19030;49.478;8.986;2022-07-23T03:20:00;19.50;99.90
32612;DHT22;19030;49.478;8.986;2022-07-23T03:22:01;19.50;99.90
32612;DHT22;19030;49.478;8.986;2022-07-23T03:24:01;19.50;99.90
32612;DHT22;19030;49.478;8.986;2022-07-23T03:26:03;19.50;99.90
32612;DHT22;19030;49.478;8.986;2022-07-23T03:28:04;19.50;99.90
32612;DHT22;19030;49.478;8.986;2022-07-23T03:30:06;19.60;99.90
32612;DHT22;19030;49.478;8.986;2022-07-23T03:32:08;19.60;99.90
32612;DHT22;19030;49.478;8.986;2022-07-23T03:34:09;19.50;99.90
32612;DHT22;19030;49.478;8.986;2022-07-23T03:36:09;19.50;99.90
32612;DHT22;19030;49.478;8.986;2022-07-23T03:38:15;19.50;99.90
32612;DHT22;19030;49.478;8.986;2022-07-23T03:40:16;19.50;99.90
32612;DHT22;19030;49.478;8.986;2022-07-23T03:42:16;19.50;99.90
32612;DHT22;19030;49.478;8.986;2022-07-23T03:44:20;19.50;99.90
32612;DHT22;19030;49.478;8.986;2022-07-23T03:46:20;19.40;99.90
32612;DHT22;19030;49.478;8.986;2022-07-23T03:48:21;19.40;99.90
32612;DHT22;19030;49.478;8.986;2022-07-23T03:50:22;19.40;99.90
32612;DHT22;19030;49.478;8.986;2022-07-23T03:52:22;19.40;99.90
32612;DHT22;19030;49.478;8.986;2022-07-23T03:54:23;19.40;99.90
32612;DHT22;19030;49.478;8.986;2022-07-23T03:56:23;19.30;99.90
32612;DHT22;19030;49.478;8.986;2022-07-23T03:58:24;19.30;99.90
32612;DHT22;19030;49.478;8.986;2022-07-23T04:00:26;19.30;99.90
32612;DHT22;19030;49.478;8.986;2022-07-23T04:02:26;19.30;99.90
32612;DHT22;19030;49.478;8.986;2022-07-23T04:04:27;19.30;99.90
32612;DHT22;19030;49.478;8.986;2022-07-23T04:06:28;19.30;99.90
32612;DHT22;19030;49.478;8.986;2022-07-23T04:08:31;19.40;99.90
32612;DHT22;19030;49.478;8.986;2022-07-23T04:10:34;19.30;99.90
32612;DHT22;19030;49.478;8.986;2022-07-23T04:12:36;19.30;99.90
32612;DHT22;19030;49.478;8.986;2022-07-23T04:14:37;19.40;99.90
32612;DHT22;19030;49.478;8.986;2022-07-23T04:16:38;19.40;99.90
32612;DHT22;19030;49.478;8.986;2022-07-23T04:18:39;19.40;99.90
32612;DHT22;19030;49.478;8.986;2022-07-23T04:20:52;19.40;99.90
32612;DHT22;19030;49.478;8.986;2022-07-23T04:22:53;19.50;99.90
32612;DHT22;19030;49.478;8.986;2022-07-23T04:24:54;19.50;99.90
32612;DHT22;19030;49.478;8.986;2022-07-23T04:26:55;19.60;99.90
32612;DHT22;19030;49.478;8.986;2022-07-23T04:28:55;19.60;99.90
32612;DHT22;19030;49.478;8.986;2022-07-23T04:30:57;19.60;99.90
32612;DHT22;19030;49.478;8.986;2022-07-23T04:32:58;19.60;99.90
32612;DHT22;19030;49.478;8.986;2022-07-23T04:35:02;19.60;99.90
32612;DHT22;19030;49.478;8.986;2022-07-23T04:37:02;19.70;99.90
32612;DHT22;19030;49.478;8.986;2022-07-23T04:39:05;19.70;99.90
32612;DHT22;19030;49.478;8.986;2022-07-23T04:41:06;19.70;99.90
32612;DHT22;19030;49.478;8.986;2022-07-23T04:43:07;19.70;99.90
32612;DHT22;19030;49.478;8.986;2022-07-23T04:45:13;19.70;99.90
32612;DHT22;19030;49.478;8.986;2022-07-23T04:47:13;19.70;99.90
32612;DHT22;19030;49.478;8.986;2022-07-23T04:49:18;19.70;99.90
32612;DHT22;19030;49.478;8.986;2022-07-23T04:51:18;19.70;99.90
32612;DHT22;19030;49.478;8.986;2022-07-23T04:53:20;19.70;99.90
32612;DHT22;19030;49.478;8.986;2022-07-23T04:55:22;19.70;99.90
32612;DHT22;19030;49.478;8.986;2022-07-23T04:57:23;19.70;99.90
32612;DHT22;19030;49.478;8.986;2022-07-23T04:59:24;19.70;99.90
32612;DHT22;19030;49.478;8.986;2022-07-23T05:01:30;19.70;99.90
32612;DHT22;19030;49.478;8.986;2022-07-23T05:03:31;19.60;99.90
32612;DHT22;19030;49.478;8.986;2022-07-23T05:05:32;19.60;99.90
32612;DHT22;19030;49.478;8.986;2022-07-23T05:07:40;19.60;99.90
32612;DHT22;19030;49.478;8.986;2022-07-23T05:09:41;19.60;99.90
32612;DHT22;19030;49.478;8.986;2022-07-23T05:11:42;19.60;99.90
32612;DHT22;19030;49.478;8.986;2022-07-23T05:13:42;19.50;99.90
32612;DHT22;19030;49.478;8.986;2022-07-23T05:15:44;19.50;99.90
32612;DHT22;19030;49.478;8.986;2022-07-23T05:17:44;19.60;99.90
32612;DHT22;19030;49.478;8.986;2022-07-23T05:19:50;19.70;99.90
32612;DHT22;19030;49.478;8.986;2022-07-23T05:21:50;19.80;99.90
32612;DHT22;19030;49.478;8.986;2022-07-23T05:23:51;19.90;99.90
32612;DHT22;19030;49.478;8.986;2022-07-23T05:25:51;19.90;99.90
32612;DHT22;19030;49.478;8.986;2022-07-23T05:27:52;20.00;99.90
32612;DHT22;19030;49.478;8.986;2022-07-23T05:29:53;20.00;99.90
32612;DHT22;19030;49.478;8.986;2022-07-23T05:31:54;19.90;99.90
32612;DHT22;19030;49.478;8.986;2022-07-23T05:33:55;19.80;99.90
32612;DHT22;19030;49.478;8.986;2022-07-23T05:36:03;19.80;99.90
32612;DHT22;19030;49.478;8.986;2022-07-23T05:38:05;19.70;99.90
32612;DHT22;19030;49.478;8.986;2022-07-23T05:40:09;19.70;99.90
32612;DHT22;19030;49.478;8.986;2022-07-23T05:42:10;19.70;99.90
32612;DHT22;19030;49.478;8.986;2022-07-23T05:44:10;19.70;99.90
32612;DHT22;19030;49.478;8.986;2022-07-23T05:46:14;19.70;99.90
32612;DHT22;19030;49.478;8.986;2022-07-23T05:48:16;19.70;99.90
32612;DHT22;19030;49.478;8.986;2022-07-23T05:50:31;19.70;99.90
32612;DHT22;19030;49.478;8.986;2022-07-23T05:52:39;19.70;99.90
32612;DHT22;19030;49.478;8.986;2022-07-23T05:54:59;19.80;99.90
32612;DHT22;19030;49.478;8.986;2022-07-23T05:57:00;19.80;99.90
32612;DHT22;19030;49.478;8.986;2022-07-23T05:59:00;19.90;99.90
32612;DHT22;19030;49.478;8.986;2022-07-23T06:01:01;19.90;99.90
32612;DHT22;19030;49.478;8.986;2022-07-23T06:03:06;19.90;99.90
32612;DHT22;19030;49.478;8.986;2022-07-23T06:05:07;19.90;99.90
32612;DHT22;19030;49.478;8.986;2022-07-23T06:07:08;19.90;99.90
32612;DHT22;19030;49.478;8.986;2022-07-23T06:09:09;19.90;99.90
32612;DHT22;19030;49.478;8.986;2022-07-23T06:11:12;20.00;99.90
32612;DHT22;19030;49.478;8.986;2022-07-23T06:13:13;20.10;99.90
32612;DHT22;19030;49.478;8.986;2022-07-23T06:15:15;20.10;99.90
32612;DHT22;19030;49.478;8.986;2022-07-23T06:17:16;20.10;99.90
32612;DHT22;19030;49.478;8.986;2022-07-23T06:19:17;20.20;99.90
32612;DHT22;19030;49.478;8.986;2022-07-23T06:21:18;20.20;99.90
32612;DHT22;19030;49.478;8.986;2022-07-23T06:23:18;20.20;99.90
32612;DHT22;19030;49.478;8.986;2022-07-23T06:25:19;20.20;99.90
32612;DHT22;19030;49.478;8.986;2022-07-23T06:27:20;20.30;99.90
32612;DHT22;19030;49.478;8.986;2022-07-23T06:29:21;20.40;99.90
32612;DHT22;19030;49.478;8.986;2022-07-23T06:31:21;20.50;99.90
32612;DHT22;19030;49.478;8.986;2022-07-23T06:33:22;20.70;99.90
32612;DHT22;19030;49.478;8.986;2022-07-23T06:35:22;20.80;99.90
32612;DHT22;19030;49.478;8.986;2022-07-23T06:37:23;21.00;99.90
32612;DHT22;19030;49.478;8.986;2022-07-23T06:39:24;21.10;99.90
32612;DHT22;19030;49.478;8.986;2022-07-23T06:41:24;21.30;99.90
32612;DHT22;19030;49.478;8.986;2022-07-23T06:43:25;21.50;99.90
32612;DHT22;19030;49.478;8.986;2022-07-23T06:45:29;21.60;99.90
32612;DHT22;19030;49.478;8.986;2022-07-23T06:47:29;21.70;99.90
32612;DHT22;19030;49.478;8.986;2022-07-23T06:49:30;21.70;99.90
32612;DHT22;19030;49.478;8.986;2022-07-23T06:51:31;21.60;99.90
32612;DHT22;19030;49.478;8.986;2022-07-23T06:53:35;21.60;99.90
32612;DHT22;19030;49.478;8.986;2022-07-23T06:55:35;21.60;99.90
32612;DHT22;19030;49.478;8.986;2022-07-23T06:57:39;21.60;99.90
32612;DHT22;19030;49.478;8.986;2022-07-23T06:59:41;21.70;99.90
32612;DHT22;19030;49.478;8.986;2022-07-23T07:01:41;21.80;99.90
32612;DHT22;19030;49.478;8.986;2022-07-23T07:03:42;21.90;99.90
32612;DHT22;19030;49.478;8.986;2022-07-23T07:05:43;22.00;99.90
32612;DHT22;19030;49.478;8.986;2022-07-23T07:07:43;22.00;99.90
32612;DHT22;19030;49.478;8.986;2022-07-23T07:09:44;21.90;99.90
32612;DHT22;19030;49.478;8.986;2022-07-23T07:11:45;22.00;99.90
32612;DHT22;19030;49.478;8.986;2022-07-23T07:13:45;22.00;99.90
32612;DHT22;19030;49.478;8.986;2022-07-23T07:15:46;22.00;99.90
32612;DHT22;19030;49.478;8.986;2022-07-23T07:17:46;22.00;99.90
32612;DHT22;19030;49.478;8.986;2022-07-23T07:19:47;22.10;99.90
32612;DHT22;19030;49.478;8.986;2022-07-23T07:21:48;22.10;99.90
32612;DHT22;19030;49.478;8.986;2022-07-23T07:23:48;22.10;99.90
32612;DHT22;19030;49.478;8.986;2022-07-23T07:25:49;22.10;99.90
32612;DHT22;19030;49.478;8.986;2022-07-23T07:27:50;22.10;99.90
32612;DHT22;19030;49.478;8.986;2022-07-23T07:29:50;22.20;99.90
32612;DHT22;19030;49.478;8.986;2022-07-23T07:31:51;22.30;99.90
32612;DHT22;19030;49.478;8.986;2022-07-23T07:33:51;22.50;99.90
32612;DHT22;19030;49.478;8.986;2022-07-23T07:35:52;22.60;99.90
32612;DHT22;19030;49.478;8.986;2022-07-23T07:37:52;22.90;99.90
32612;DHT22;19030;49.478;8.986;2022-07-23T07:39:53;23.20;99.90
32612;DHT22;19030;49.478;8.986;2022-07-23T07:41:54;23.40;99.90
32612;DHT22;19030;49.478;8.986;2022-07-23T07:43:54;23.60;99.90
32612;DHT22;19030;49.478;8.986;2022-07-23T07:45:55;23.90;99.90
32612;DHT22;19030;49.478;8.986;2022-07-23T07:47:55;24.20;99.90
32612;DHT22;19030;49.478;8.986;2022-07-23T07:49:56;24.40;99.90
32612;DHT22;19030;49.478;8.986;2022-07-23T07:51:56;24.60;99.90
32612;DHT22;19030;49.478;8.986;2022-07-23T07:53:57;24.70;99.90
32612;DHT22;19030;49.478;8.986;2022-07-23T07:55:58;24.80;99.90
32612;DHT22;19030;49.478;8.986;2022-07-23T07:57:59;24.90;99.90
32612;DHT22;19030;49.478;8.986;2022-07-23T08:00:00;25.20;99.90
32612;DHT22;19030;49.478;8.986;2022-07-23T08:02:00;25.50;99.40
32612;DHT22;19030;49.478;8.986;2022-07-23T08:04:01;25.50;97.90
32612;DHT22;19030;49.478;8.986;2022-07-23T08:06:01;25.50;96.60
32612;DHT22;19030;49.478;8.986;2022-07-23T08:08:02;25.50;96.90
32612;DHT22;19030;49.478;8.986;2022-07-23T08:10:03;25.70;97.00
32612;DHT22;19030;49.478;8.986;2022-07-23T08:12:04;26.20;95.20
32612;DHT22;19030;49.478;8.986;2022-07-23T08:14:04;26.90;93.70
32612;DHT22;19030;49.478;8.986;2022-07-23T08:16:05;27.20;91.20
32612;DHT22;19030;49.478;8.986;2022-07-23T08:18:06;27.20;90.80
32612;DHT22;19030;49.478;8.986;2022-07-23T08:20:07;27.20;90.10
32612;DHT22;19030;49.478;8.986;2022-07-23T08:22:08;27.60;88.80
32612;DHT22;19030;49.478;8.986;2022-07-23T08:24:08;28.20;87.00
32612;DHT22;19030;49.478;8.986;2022-07-23T08:26:09;28.40;85.20
32612;DHT22;19030;49.478;8.986;2022-07-23T08:28:11;28.90;83.00
32612;DHT22;19030;49.478;8.986;2022-07-23T08:30:12;29.40;79.10
32612;DHT22;19030;49.478;8.986;2022-07-23T08:32:13;30.00;76.70
32612;DHT22;19030;49.478;8.986;2022-07-23T08:34:13;30.50;73.10
32612;DHT22;19030;49.478;8.986;2022-07-23T08:36:14;30.90;70.90
32612;DHT22;19030;49.478;8.986;2022-07-23T08:38:16;31.10;68.30
32612;DHT22;19030;49.478;8.986;2022-07-23T08:40:18;31.10;67.00
32612;DHT22;19030;49.478;8.986;2022-07-23T08:42:21;31.00;66.10
32612;DHT22;19030;49.478;8.986;2022-07-23T08:44:21;30.80;66.40
32612;DHT22;19030;49.478;8.986;2022-07-23T08:46:22;30.10;66.60
32612;DHT22;19030;49.478;8.986;2022-07-23T08:48:30;29.40;69.50
32612;DHT22;19030;49.478;8.986;2022-07-23T08:50:31;28.70;71.40
32612;DHT22;19030;49.478;8.986;2022-07-23T08:52:33;28.10;73.90
32612;DHT22;19030;49.478;8.986;2022-07-23T08:54:34;27.70;76.70
32612;DHT22;19030;49.478;8.986;2022-07-23T08:56:35;27.70;77.60
32612;DHT22;19030;49.478;8.986;2022-07-23T08:58:36;27.80;77.20
32612;DHT22;19030;49.478;8.986;2022-07-23T09:00:36;28.00;78.00
32612;DHT22;19030;49.478;8.986;2022-07-23T09:02:41;28.20;77.10
32612;DHT22;19030;49.478;8.986;2022-07-23T09:04:42;28.50;75.10
32612;DHT22;19030;49.478;8.986;2022-07-23T09:06:42;29.40;73.90
32612;DHT22;19030;49.478;8.986;2022-07-23T09:08:43;30.20;70.40
32612;DHT22;19030;49.478;8.986;2022-07-23T09:12:55;32.80;59.80
32612;DHT22;19030;49.478;8.986;2022-07-23T09:14:56;33.70;56.20
32612;DHT22;19030;49.478;8.986;2022-07-23T09:17:29;34.20;54.60
32612;DHT22;19030;49.478;8.986;2022-07-23T09:19:36;34.20;53.10
32612;DHT22;19030;49.478;8.986;2022-07-23T09:21:38;34.30;53.30
32612;DHT22;19030;49.478;8.986;2022-07-23T09:25:42;34.60;50.70
32612;DHT22;19030;49.478;8.986;2022-07-23T09:27:50;34.00;50.70
32612;DHT22;19030;49.478;8.986;2022-07-23T09:29:56;33.00;53.40
32612;DHT22;19030;49.478;8.986;2022-07-23T09:31:59;31.90;55.00
32612;DHT22;19030;49.478;8.986;2022-07-23T09:34:11;31.10;56.20
32612;DHT22;19030;49.478;8.986;2022-07-23T09:36:12;30.80;57.80
32612;DHT22;19030;49.478;8.986;2022-07-23T09:38:14;31.00;58.40
32612;DHT22;19030;49.478;8.986;2022-07-23T09:40:14;32.70;56.10
32612;DHT22;19030;49.478;8.986;2022-07-23T09:42:21;34.70;51.20
32612;DHT22;19030;49.478;8.986;2022-07-23T09:44:22;35.60;48.30
32612;DHT22;19030;49.478;8.986;2022-07-23T09:48:24;35.80;47.20
32612;DHT22;19030;49.478;8.986;2022-07-23T09:50:25;35.70;46.90
32612;DHT22;19030;49.478;8.986;2022-07-23T09:52:30;35.10;47.00
32612;DHT22;19030;49.478;8.986;2022-07-23T09:56:35;34.20;48.20
32612;DHT22;19030;49.478;8.986;2022-07-23T09:58:40;33.80;49.00
32612;DHT22;19030;49.478;8.986;2022-07-23T10:00:50;34.10;50.80
32612;DHT22;19030;49.478;8.986;2022-07-23T10:02:51;34.80;48.10
32612;DHT22;19030;49.478;8.986;2022-07-23T10:05:02;36.20;47.10
32612;DHT22;19030;49.478;8.986;2022-07-23T10:07:25;37.00;44.70
32612;DHT22;19030;49.478;8.986;2022-07-23T10:09:47;36.90;44.70
32612;DHT22;19030;49.478;8.986;2022-07-23T10:12:13;36.40;44.10
32612;DHT22;19030;49.478;8.986;2022-07-23T10:14:35;37.10;44.00
32612;DHT22;19030;49.478;8.986;2022-07-23T10:16:39;38.60;42.00
32612;DHT22;19030;49.478;8.986;2022-07-23T10:18:40;39.70;39.70
32612;DHT22;19030;49.478;8.986;2022-07-23T10:20:40;40.30;37.60
32612;DHT22;19030;49.478;8.986;2022-07-23T10:23:02;39.90;37.60
32612;DHT22;19030;49.478;8.986;2022-07-23T10:25:26;39.30;37.70
32612;DHT22;19030;49.478;8.986;2022-07-23T10:30:03;38.70;39.40
32612;DHT22;19030;49.478;8.986;2022-07-23T10:32:20;38.80;39.20
32612;DHT22;19030;49.478;8.986;2022-07-23T10:34:43;38.90;39.30
32612;DHT22;19030;49.478;8.986;2022-07-23T10:39:28;37.90;40.50
32612;DHT22;19030;49.478;8.986;2022-07-23T10:41:39;37.10;41.10
32612;DHT22;19030;49.478;8.986;2022-07-23T10:43:40;36.80;42.20
32612;DHT22;19030;49.478;8.986;2022-07-23T10:45:41;36.30;42.30
32612;DHT22;19030;49.478;8.986;2022-07-23T10:47:41;35.60;43.40
32612;DHT22;19030;49.478;8.986;2022-07-23T10:49:42;35.30;43.50
32612;DHT22;19030;49.478;8.986;2022-07-23T10:54:21;35.30;45.10
32612;DHT22;19030;49.478;8.986;2022-07-23T10:59:03;34.90;44.90
32612;DHT22;19030;49.478;8.986;2022-07-23T11:01:36;34.70;46.30
32612;DHT22;19030;49.478;8.986;2022-07-23T11:03:37;34.70;45.70
32612;DHT22;19030;49.478;8.986;2022-07-23T11:05:46;35.00;46.50
32612;DHT22;19030;49.478;8.986;2022-07-23T11:10:05;35.50;44.40
32612;DHT22;19030;49.478;8.986;2022-07-23T11:17:19;34.80;44.50
32612;DHT22;19030;49.478;8.986;2022-07-23T11:19:20;34.10;46.10
32612;DHT22;19030;49.478;8.986;2022-07-23T11:26:08;32.70;48.50
32612;DHT22;19030;49.478;8.986;2022-07-23T11:28:17;32.30;49.80
32612;DHT22;19030;49.478;8.986;2022-07-23T11:32:35;32.50;49.40
32612;DHT22;19030;49.478;8.986;2022-07-23T11:34:40;32.60;48.80
32612;DHT22;19030;49.478;8.986;2022-07-23T11:36:51;33.30;48.70
32612;DHT22;19030;49.478;8.986;2022-07-23T11:38:52;33.90;47.20
32612;DHT22;19030;49.478;8.986;2022-07-23T11:40:55;34.40;46.20
32612;DHT22;19030;49.478;8.986;2022-07-23T11:43:06;34.30;44.90
32612;DHT22;19030;49.478;8.986;2022-07-23T11:45:08;33.90;45.80
32612;DHT22;19030;49.478;8.986;2022-07-23T11:47:10;33.50;46.50
32612;DHT22;19030;49.478;8.986;2022-07-23T11:49:12;33.70;46.80
32612;DHT22;19030;49.478;8.986;2022-07-23T11:51:25;34.40;46.30
32612;DHT22;19030;49.478;8.986;2022-07-23T11:53:32;34.50;44.60
32612;DHT22;19030;49.478;8.986;2022-07-23T11:55:33;34.10;46.20
32612;DHT22;19030;49.478;8.986;2022-07-23T11:57:35;33.50;45.20
32612;DHT22;19030;49.478;8.986;2022-07-23T11:59:36;33.00;46.30
32612;DHT22;19030;49.478;8.986;2022-07-23T12:01:59;33.00;47.10
32612;DHT22;19030;49.478;8.986;2022-07-23T12:04:00;33.40;45.50
32612;DHT22;19030;49.478;8.986;2022-07-23T12:06:00;33.10;45.40
32612;DHT22;19030;49.478;8.986;2022-07-23T12:08:03;33.20;46.30
32612;DHT22;19030;49.478;8.986;2022-07-23T12:10:11;33.40;46.40
32612;DHT22;19030;49.478;8.986;2022-07-23T12:12:12;33.50;46.60
32612;DHT22;19030;49.478;8.986;2022-07-23T12:14:12;33.70;45.60
32612;DHT22;19030;49.478;8.986;2022-07-23T12:16:13;33.90;45.00
32612;DHT22;19030;49.478;8.986;2022-07-23T12:18:16;34.00;45.30
32612;DHT22;19030;49.478;8.986;2022-07-23T12:20:21;33.80;45.50
32612;DHT22;19030;49.478;8.986;2022-07-23T12:22:27;33.70;46.60
32612;DHT22;19030;49.478;8.986;2022-07-23T12:24:53;34.00;45.70
32612;DHT22;19030;49.478;8.986;2022-07-23T12:27:12;34.40;44.30
32612;DHT22;19030;49.478;8.986;2022-07-23T12:29:14;34.40;44.40
32612;DHT22;19030;49.478;8.986;2022-07-23T12:31:14;34.30;44.80
32612;DHT22;19030;49.478;8.986;2022-07-23T12:33:33;33.90;44.60
32612;DHT22;19030;49.478;8.986;2022-07-23T12:35:45;33.40;45.60
32612;DHT22;19030;49.478;8.986;2022-07-23T12:37:51;33.20;46.70
32612;DHT22;19030;49.478;8.986;2022-07-23T12:39:55;33.10;45.90
32612;DHT22;19030;49.478;8.986;2022-07-23T12:41:56;32.50;47.10
32612;DHT22;19030;49.478;8.986;2022-07-23T12:43:56;32.40;47.40
32612;DHT22;19030;49.478;8.986;2022-07-23T12:48:19;33.00;46.10
32612;DHT22;19030;49.478;8.986;2022-07-23T12:50:33;33.20;46.70
32612;DHT22;19030;49.478;8.986;2022-07-23T12:52:34;33.50;45.90
32612;DHT22;19030;49.478;8.986;2022-07-23T12:54:35;33.40;45.30
32612;DHT22;19030;49.478;8.986;2022-07-23T12:56:37;33.40;45.50
32612;DHT22;19030;49.478;8.986;2022-07-23T12:58:44;33.50;45.70
32612;DHT22;19030;49.478;8.986;2022-07-23T13:02:55;32.70;46.40
32612;DHT22;19030;49.478;8.986;2022-07-23T13:04:56;32.40;47.80
32612;DHT22;19030;49.478;8.986;2022-07-23T13:06:59;32.10;47.90
32612;DHT22;19030;49.478;8.986;2022-07-23T13:09:05;31.80;48.50
32612;DHT22;19030;49.478;8.986;2022-07-23T13:11:06;31.60;48.70
32612;DHT22;19030;49.478;8.986;2022-07-23T13:13:10;31.50;49.30
32612;DHT22;19030;49.478;8.986;2022-07-23T13:15:11;31.30;48.80
32612;DHT22;19030;49.478;8.986;2022-07-23T13:17:11;30.80;49.20
32612;DHT22;19030;49.478;8.986;2022-07-23T13:19:12;30.70;50.30
32612;DHT22;19030;49.478;8.986;2022-07-23T13:21:13;30.90;49.90
32612;DHT22;19030;49.478;8.986;2022-07-23T13:23:14;30.90;50.00
32612;DHT22;19030;49.478;8.986;2022-07-23T13:25:14;30.80;50.70
32612;DHT22;19030;49.478;8.986;2022-07-23T13:27:15;30.50;50.80
32612;DHT22;19030;49.478;8.986;2022-07-23T13:29:15;30.30;51.00
32612;DHT22;19030;49.478;8.986;2022-07-23T13:31:16;30.20;51.50
32612;DHT22;19030;49.478;8.986;2022-07-23T13:33:19;30.10;51.70